Terminal Aerodrome Forecast
Issued by NWS

Home | Current Version | Previous Version | Text Only | Print | Product List | Glossary On
Versions: 1 2 3 4 5 6 7 8 9 10 11 12 13 14 15 16 17 18
000
FTUS43 KMPX 251700
TAFRNH
TAF
KRNH 251720Z 2518/2618 21009KT P6SM BKN018 BKN040
     FM252000 21009KT P6SM SCT025 BKN050
     FM260000 18005KT P6SM SCT050 SCT090
     FM260500 VRB03KT 4SM BR SCT040
     FM260800 VRB03KT 2SM BR SCT007
     FM261400 28005KT P6SM SCT040 SCT120=

USA.gov is the U.S. government's official web portal to all federal, state and local government web resources and services.